sensor_id;sensor_type;location;lat;lon;timestamp;temperature;humidity
53643;DHT22;39546;45.534;12.048;2023-01-20T00:02:20;7.50;89.10
53643;DHT22;39546;45.534;12.048;2023-01-20T00:08:22;7.60;89.20
53643;DHT22;39546;45.534;12.048;2023-01-20T00:14:24;7.60;89.10
53643;DHT22;39546;45.534;12.048;2023-01-20T00:20:35;7.50;89.40
53643;DHT22;39546;45.534;12.048;2023-01-20T00:26:37;7.40;89.50
53643;DHT22;39546;45.534;12.048;2023-01-20T00:32:39;7.50;89.50
53643;DHT22;39546;45.534;12.048;2023-01-20T00:38:45;7.50;89.30
53643;DHT22;39546;45.534;12.048;2023-01-20T00:44:48;7.40;89.20
53643;DHT22;39546;45.534;12.048;2023-01-20T00:50:53;7.30;89.30
53643;DHT22;39546;45.534;12.048;2023-01-20T00:56:55;7.20;89.20
53643;DHT22;39546;45.534;12.048;2023-01-20T01:02:57;7.10;88.20
53643;DHT22;39546;45.534;12.048;2023-01-20T01:08:59;6.90;88.80
53643;DHT22;39546;45.534;12.048;2023-01-20T01:15:21;6.90;89.10
53643;DHT22;39546;45.534;12.048;2023-01-20T01:21:23;6.90;88.40
53643;DHT22;39546;45.534;12.048;2023-01-20T01:27:27;6.70;88.00
53643;DHT22;39546;45.534;12.048;2023-01-20T01:33:29;6.60;87.50
53643;DHT22;39546;45.534;12.048;2023-01-20T01:39:31;6.60;87.30
53643;DHT22;39546;45.534;12.048;2023-01-20T01:45:33;6.40;86.10
53643;DHT22;39546;45.534;12.048;2023-01-20T01:51:41;6.20;86.70
53643;DHT22;39546;45.534;12.048;2023-01-20T01:57:46;6.20;86.90
53643;DHT22;39546;45.534;12.048;2023-01-20T02:03:58;6.20;86.90
53643;DHT22;39546;45.534;12.048;2023-01-20T02:10:02;6.00;86.30
53643;DHT22;39546;45.534;12.048;2023-01-20T02:36:07;6.70;88.30
53643;DHT22;39546;45.534;12.048;2023-01-20T02:42:00;6.60;88.80
53643;DHT22;39546;45.534;12.048;2023-01-20T02:48:23;6.70;89.10
53643;DHT22;39546;45.534;12.048;2023-01-20T02:54:29;6.90;89.10
53643;DHT22;39546;45.534;12.048;2023-01-20T03:00:39;6.80;89.30
53643;DHT22;39546;45.534;12.048;2023-01-20T03:06:47;6.80;89.40
53643;DHT22;39546;45.534;12.048;2023-01-20T03:13:12;6.80;89.00
53643;DHT22;39546;45.534;12.048;2023-01-20T03:19:16;6.70;89.10
53643;DHT22;39546;45.534;12.048;2023-01-20T03:25:20;6.70;89.40
53643;DHT22;39546;45.534;12.048;2023-01-20T03:31:28;6.70;89.80
53643;DHT22;39546;45.534;12.048;2023-01-20T03:37:31;6.70;89.60
53643;DHT22;39546;45.534;12.048;2023-01-20T03:43:44;6.70;89.60
53643;DHT22;39546;45.534;12.048;2023-01-20T03:56:06;6.40;89.00
53643;DHT22;39546;45.534;12.048;2023-01-20T04:02:09;6.40;89.10
53643;DHT22;39546;45.534;12.048;2023-01-20T04:08:15;6.50;89.30
53643;DHT22;39546;45.534;12.048;2023-01-20T04:14:18;6.30;88.80
53643;DHT22;39546;45.534;12.048;2023-01-20T04:20:21;6.40;89.20
53643;DHT22;39546;45.534;12.048;2023-01-20T04:26:25;6.40;89.20
53643;DHT22;39546;45.534;12.048;2023-01-20T04:32:27;6.50;89.30
53643;DHT22;39546;45.534;12.048;2023-01-20T04:38:28;6.50;89.40
53643;DHT22;39546;45.534;12.048;2023-01-20T04:44:30;6.80;89.20
53643;DHT22;39546;45.534;12.048;2023-01-20T04:50:36;7.00;89.40
53643;DHT22;39546;45.534;12.048;2023-01-20T04:56:38;7.20;89.40
53643;DHT22;39546;45.534;12.048;2023-01-20T05:02:40;7.40;89.10
53643;DHT22;39546;45.534;12.048;2023-01-20T05:08:42;7.30;88.60
53643;DHT22;39546;45.534;12.048;2023-01-20T05:14:43;7.00;87.60
53643;DHT22;39546;45.534;12.048;2023-01-20T05:20:46;7.00;89.00
53643;DHT22;39546;45.534;12.048;2023-01-20T05:26:49;7.20;89.00
53643;DHT22;39546;45.534;12.048;2023-01-20T05:32:50;7.20;89.00
53643;DHT22;39546;45.534;12.048;2023-01-20T05:38:53;7.20;88.50
53643;DHT22;39546;45.534;12.048;2023-01-20T05:44:55;7.30;89.00
53643;DHT22;39546;45.534;12.048;2023-01-20T05:50:57;7.60;88.80
53643;DHT22;39546;45.534;12.048;2023-01-20T05:56:59;7.70;88.50
53643;DHT22;39546;45.534;12.048;2023-01-20T06:03:02;7.80;88.30
53643;DHT22;39546;45.534;12.048;2023-01-20T06:09:04;7.80;88.40
53643;DHT22;39546;45.534;12.048;2023-01-20T06:15:08;7.90;88.40
53643;DHT22;39546;45.534;12.048;2023-01-20T06:21:10;7.90;88.20
53643;DHT22;39546;45.534;12.048;2023-01-20T06:27:12;7.90;88.20
53643;DHT22;39546;45.534;12.048;2023-01-20T06:33:14;8.00;88.30
53643;DHT22;39546;45.534;12.048;2023-01-20T06:39:16;8.10;88.10
53643;DHT22;39546;45.534;12.048;2023-01-20T06:45:18;8.10;88.30
53643;DHT22;39546;45.534;12.048;2023-01-20T06:51:20;8.20;88.40
53643;DHT22;39546;45.534;12.048;2023-01-20T06:57:22;8.30;88.20
53643;DHT22;39546;45.534;12.048;2023-01-20T07:03:24;8.30;87.50
53643;DHT22;39546;45.534;12.048;2023-01-20T07:09:26;7.90;86.90
53643;DHT22;39546;45.534;12.048;2023-01-20T07:15:28;8.00;87.60
53643;DHT22;39546;45.534;12.048;2023-01-20T07:21:30;7.50;87.30
53643;DHT22;39546;45.534;12.048;2023-01-20T07:27:32;7.70;87.60
53643;DHT22;39546;45.534;12.048;2023-01-20T07:33:35;8.00;86.70
53643;DHT22;39546;45.534;12.048;2023-01-20T07:39:37;8.20;86.00
53643;DHT22;39546;45.534;12.048;2023-01-20T07:45:39;8.30;86.00
53643;DHT22;39546;45.534;12.048;2023-01-20T07:51:41;8.40;85.80
53643;DHT22;39546;45.534;12.048;2023-01-20T07:57:44;8.50;85.50
53643;DHT22;39546;45.534;12.048;2023-01-20T08:03:46;8.60;85.30
53643;DHT22;39546;45.534;12.048;2023-01-20T08:09:48;8.70;85.20
53643;DHT22;39546;45.534;12.048;2023-01-20T08:15:50;8.80;85.20
53643;DHT22;39546;45.534;12.048;2023-01-20T08:21:52;9.00;85.10
53643;DHT22;39546;45.534;12.048;2023-01-20T08:27:54;9.10;86.00
53643;DHT22;39546;45.534;12.048;2023-01-20T08:33:57;9.20;86.10
53643;DHT22;39546;45.534;12.048;2023-01-20T08:39:59;9.20;86.40
53643;DHT22;39546;45.534;12.048;2023-01-20T08:46:04;9.20;87.00
53643;DHT22;39546;45.534;12.048;2023-01-20T08:52:07;9.20;87.00
53643;DHT22;39546;45.534;12.048;2023-01-20T08:58:09;9.10;87.40
53643;DHT22;39546;45.534;12.048;2023-01-20T09:04:11;8.90;87.50
53643;DHT22;39546;45.534;12.048;2023-01-20T09:10:14;8.70;87.60
53643;DHT22;39546;45.534;12.048;2023-01-20T09:16:16;8.60;87.70
53643;DHT22;39546;45.534;12.048;2023-01-20T09:22:21;8.40;87.90
53643;DHT22;39546;45.534;12.048;2023-01-20T09:28:22;8.30;88.00
53643;DHT22;39546;45.534;12.048;2023-01-20T09:34:26;8.10;88.10
53643;DHT22;39546;45.534;12.048;2023-01-20T09:40:43;8.30;88.90
53643;DHT22;39546;45.534;12.048;2023-01-20T09:59:54;8.60;87.70
53643;DHT22;39546;45.534;12.048;2023-01-20T10:06:07;8.30;87.80
53643;DHT22;39546;45.534;12.048;2023-01-20T10:12:20;8.20;88.50
53643;DHT22;39546;45.534;12.048;2023-01-20T10:18:45;8.30;88.90
53643;DHT22;39546;45.534;12.048;2023-01-20T10:31:24;8.20;88.50
53643;DHT22;39546;45.534;12.048;2023-01-20T10:37:29;8.10;87.40
53643;DHT22;39546;45.534;12.048;2023-01-20T10:43:32;7.90;86.80
53643;DHT22;39546;45.534;12.048;2023-01-20T11:02:34;8.30;87.30
53643;DHT22;39546;45.534;12.048;2023-01-20T11:08:38;8.60;87.00
53643;DHT22;39546;45.534;12.048;2023-01-20T11:14:40;8.70;87.50
53643;DHT22;39546;45.534;12.048;2023-01-20T11:27:05;8.90;87.50
53643;DHT22;39546;45.534;12.048;2023-01-20T11:33:25;9.10;88.50
53643;DHT22;39546;45.534;12.048;2023-01-20T11:39:56;9.30;88.50
53643;DHT22;39546;45.534;12.048;2023-01-20T11:46:25;9.50;88.40
53643;DHT22;39546;45.534;12.048;2023-01-20T11:52:27;10.00;88.50
53643;DHT22;39546;45.534;12.048;2023-01-20T11:58:47;10.40;88.00
53643;DHT22;39546;45.534;12.048;2023-01-20T12:05:16;10.60;87.90
53643;DHT22;39546;45.534;12.048;2023-01-20T12:11:30;10.50;87.70
53643;DHT22;39546;45.534;12.048;2023-01-20T12:17:44;10.50;87.70
53643;DHT22;39546;45.534;12.048;2023-01-20T12:23:59;10.50;88.10
53643;DHT22;39546;45.534;12.048;2023-01-20T12:30:06;10.60;87.80
53643;DHT22;39546;45.534;12.048;2023-01-20T12:42:44;10.60;88.30
53643;DHT22;39546;45.534;12.048;2023-01-20T13:01:39;10.90;87.80
53643;DHT22;39546;45.534;12.048;2023-01-20T13:08:21;10.70;87.20
53643;DHT22;39546;45.534;12.048;2023-01-20T13:14:44;10.40;88.80
53643;DHT22;39546;45.534;12.048;2023-01-20T13:20:47;10.60;89.40
53643;DHT22;39546;45.534;12.048;2023-01-20T13:26:49;10.70;88.70
53643;DHT22;39546;45.534;12.048;2023-01-20T13:33:02;10.50;88.70
53643;DHT22;39546;45.534;12.048;2023-01-20T13:39:45;10.40;89.40
53643;DHT22;39546;45.534;12.048;2023-01-20T13:45:45;10.20;88.90
53643;DHT22;39546;45.534;12.048;2023-01-20T13:51:47;10.20;89.30
53643;DHT22;39546;45.534;12.048;2023-01-20T13:57:49;10.20;88.90
53643;DHT22;39546;45.534;12.048;2023-01-20T14:04:25;10.40;89.60
53643;DHT22;39546;45.534;12.048;2023-01-20T14:10:28;10.70;89.90
53643;DHT22;39546;45.534;12.048;2023-01-20T14:16:41;10.90;89.70
53643;DHT22;39546;45.534;12.048;2023-01-20T14:22:44;11.10;89.20
53643;DHT22;39546;45.534;12.048;2023-01-20T14:28:54;11.20;89.30
53643;DHT22;39546;45.534;12.048;2023-01-20T14:34:57;11.40;89.40
53643;DHT22;39546;45.534;12.048;2023-01-20T14:40:59;11.70;88.70
53643;DHT22;39546;45.534;12.048;2023-01-20T14:47:02;11.50;88.80
53643;DHT22;39546;45.534;12.048;2023-01-20T14:53:04;11.30;89.00
53643;DHT22;39546;45.534;12.048;2023-01-20T14:59:19;11.20;89.10
53643;DHT22;39546;45.534;12.048;2023-01-20T15:05:29;11.20;89.30
53643;DHT22;39546;45.534;12.048;2023-01-20T15:11:32;11.20;89.50
53643;DHT22;39546;45.534;12.048;2023-01-20T15:17:34;11.10;89.50
53643;DHT22;39546;45.534;12.048;2023-01-20T15:23:36;11.00;89.50
53643;DHT22;39546;45.534;12.048;2023-01-20T15:30:11;10.90;89.40
53643;DHT22;39546;45.534;12.048;2023-01-20T15:36:34;10.80;89.40
53643;DHT22;39546;45.534;12.048;2023-01-20T15:42:37;10.80;89.10
53643;DHT22;39546;45.534;12.048;2023-01-20T15:48:39;10.50;89.00
53643;DHT22;39546;45.534;12.048;2023-01-20T15:54:41;10.30;89.10
53643;DHT22;39546;45.534;12.048;2023-01-20T16:00:56;10.20;89.00
53643;DHT22;39546;45.534;12.048;2023-01-20T16:07:03;10.00;88.90
53643;DHT22;39546;45.534;12.048;2023-01-20T16:13:06;9.80;89.00
53643;DHT22;39546;45.534;12.048;2023-01-20T16:19:14;9.80;88.70
53643;DHT22;39546;45.534;12.048;2023-01-20T16:25:17;9.70;88.60
53643;DHT22;39546;45.534;12.048;2023-01-20T16:31:40;9.50;88.50
53643;DHT22;39546;45.534;12.048;2023-01-20T16:37:43;9.50;88.40
53643;DHT22;39546;45.534;12.048;2023-01-20T16:43:46;9.50;88.20
53643;DHT22;39546;45.534;12.048;2023-01-20T16:49:48;9.50;88.00
53643;DHT22;39546;45.534;12.048;2023-01-20T16:55:51;9.50;87.70
53643;DHT22;39546;45.534;12.048;2023-01-20T17:01:53;9.50;87.70
53643;DHT22;39546;45.534;12.048;2023-01-20T17:07:55;9.50;87.50
53643;DHT22;39546;45.534;12.048;2023-01-20T17:14:00;9.30;87.30
53643;DHT22;39546;45.534;12.048;2023-01-20T17:20:20;9.20;87.30
53643;DHT22;39546;45.534;12.048;2023-01-20T17:26:25;9.20;87.10
53643;DHT22;39546;45.534;12.048;2023-01-20T17:32:27;9.20;86.90
53643;DHT22;39546;45.534;12.048;2023-01-20T17:38:54;9.10;86.60
53643;DHT22;39546;45.534;12.048;2023-01-20T17:44:55;9.00;86.70
53643;DHT22;39546;45.534;12.048;2023-01-20T17:51:08;9.00;86.60
53643;DHT22;39546;45.534;12.048;2023-01-20T17:57:26;9.00;86.30
53643;DHT22;39546;45.534;12.048;2023-01-20T18:03:28;8.90;86.00
53643;DHT22;39546;45.534;12.048;2023-01-20T18:09:30;9.00;85.70
53643;DHT22;39546;45.534;12.048;2023-01-20T18:15:35;9.10;85.20
53643;DHT22;39546;45.534;12.048;2023-01-20T18:21:37;9.10;84.80
53643;DHT22;39546;45.534;12.048;2023-01-20T18:27:41;9.20;84.40
53643;DHT22;39546;45.534;12.048;2023-01-20T18:33:51;9.20;84.10
53643;DHT22;39546;45.534;12.048;2023-01-20T18:39:53;9.20;83.80
53643;DHT22;39546;45.534;12.048;2023-01-20T18:45:56;9.00;83.60
53643;DHT22;39546;45.534;12.048;2023-01-20T18:51:58;9.00;83.30
53643;DHT22;39546;45.534;12.048;2023-01-20T18:58:00;9.00;83.00
53643;DHT22;39546;45.534;12.048;2023-01-20T19:04:03;8.90;82.80
53643;DHT22;39546;45.534;12.048;2023-01-20T19:10:05;8.80;82.90
53643;DHT22;39546;45.534;12.048;2023-01-20T19:16:08;8.70;82.80
53643;DHT22;39546;45.534;12.048;2023-01-20T19:22:11;8.60;82.80
53643;DHT22;39546;45.534;12.048;2023-01-20T19:28:13;8.60;83.20
53643;DHT22;39546;45.534;12.048;2023-01-20T19:34:15;8.80;83.50
53643;DHT22;39546;45.534;12.048;2023-01-20T19:40:17;8.90;84.40
53643;DHT22;39546;45.534;12.048;2023-01-20T19:46:27;9.00;84.10
53643;DHT22;39546;45.534;12.048;2023-01-20T19:52:29;8.80;83.80
53643;DHT22;39546;45.534;12.048;2023-01-20T19:58:32;8.80;83.80
53643;DHT22;39546;45.534;12.048;2023-01-20T20:04:35;8.70;83.50
53643;DHT22;39546;45.534;12.048;2023-01-20T20:11:08;8.70;83.40
53643;DHT22;39546;45.534;12.048;2023-01-20T20:17:13;8.60;83.40
53643;DHT22;39546;45.534;12.048;2023-01-20T20:23:16;8.50;83.50
53643;DHT22;39546;45.534;12.048;2023-01-20T20:29:20;8.40;83.50
53643;DHT22;39546;45.534;12.048;2023-01-20T20:35:23;8.20;83.50
53643;DHT22;39546;45.534;12.048;2023-01-20T20:41:28;8.30;83.50
53643;DHT22;39546;45.534;12.048;2023-01-20T20:47:32;8.20;83.40
53643;DHT22;39546;45.534;12.048;2023-01-20T20:53:34;8.20;83.70
53643;DHT22;39546;45.534;12.048;2023-01-20T20:59:36;8.20;83.60
53643;DHT22;39546;45.534;12.048;2023-01-20T21:05:38;8.20;83.40
53643;DHT22;39546;45.534;12.048;2023-01-20T21:11:56;8.20;83.30
53643;DHT22;39546;45.534;12.048;2023-01-20T21:17:59;8.20;83.40
53643;DHT22;39546;45.534;12.048;2023-01-20T21:24:24;8.10;83.50
53643;DHT22;39546;45.534;12.048;2023-01-20T21:30:29;7.90;83.50
53643;DHT22;39546;45.534;12.048;2023-01-20T21:36:31;7.70;83.70
53643;DHT22;39546;45.534;12.048;2023-01-20T21:42:35;7.60;83.70
53643;DHT22;39546;45.534;12.048;2023-01-20T21:48:37;7.70;83.90
53643;DHT22;39546;45.534;12.048;2023-01-20T21:54:58;7.70;83.70
53643;DHT22;39546;45.534;12.048;2023-01-20T22:01:00;7.70;83.50
53643;DHT22;39546;45.534;12.048;2023-01-20T22:07:02;7.40;83.90
53643;DHT22;39546;45.534;12.048;2023-01-20T22:13:04;7.50;83.90
53643;DHT22;39546;45.534;12.048;2023-01-20T22:19:10;7.40;83.70
53643;DHT22;39546;45.534;12.048;2023-01-20T22:25:12;7.20;84.10
53643;DHT22;39546;45.534;12.048;2023-01-20T22:31:16;7.30;84.00
53643;DHT22;39546;45.534;12.048;2023-01-20T22:37:22;7.40;83.90
53643;DHT22;39546;45.534;12.048;2023-01-20T22:43:24;7.20;83.60
53643;DHT22;39546;45.534;12.048;2023-01-20T22:49:26;7.00;84.10
53643;DHT22;39546;45.534;12.048;2023-01-20T22:55:30;6.90;84.50
53643;DHT22;39546;45.534;12.048;2023-01-20T23:01:33;6.90;84.10
53643;DHT22;39546;45.534;12.048;2023-01-20T23:07:36;6.70;84.30
53643;DHT22;39546;45.534;12.048;2023-01-20T23:13:39;6.80;84.30
53643;DHT22;39546;45.534;12.048;2023-01-20T23:19:41;6.80;84.30
53643;DHT22;39546;45.534;12.048;2023-01-20T23:25:44;6.90;84.10
53643;DHT22;39546;45.534;12.048;2023-01-20T23:31:49;6.90;84.00
53643;DHT22;39546;45.534;12.048;2023-01-20T23:37:53;6.80;84.10
53643;DHT22;39546;45.534;12.048;2023-01-20T23:43:56;6.80;83.80
53643;DHT22;39546;45.534;12.048;2023-01-20T23:49:58;6.70;83.70
53643;DHT22;39546;45.534;12.048;2023-01-20T23:56:01;6.70;83.60
